Time;durP1;ratioP1;P1;durP2;ratioP2;P2;SDS_P1;SDS_P2;PMS_P1;PMS_P2;Temp;Humidity;BMP_temperature;BMP_pressure;BME280_temperature;BME280_humidity;BME280_pressure;Samples;Min_cycle;Max_cycle;Signal;HPM_P1;HPM_P2
2021/07/27 00:00:39;;;;;;;15.60;9.93;;;19.70;85.40;;;;;;2061126;28;20114;-94
2021/07/27 00:01:40;;;;;;;14.32;9.50;;;19.70;85.50;;;;;;2074055;28;20030;-93
2021/07/27 00:02:40;;;;;;;14.07;10.07;;;19.70;85.50;;;;;;2074305;28;20478;-93
2021/07/27 00:03:41;;;;;;;15.40;10.32;;;19.70;85.50;;;;;;2065757;28;20050;-93
2021/07/27 00:04:42;;;;;;;16.23;10.50;;;19.70;85.50;;;;;;2069203;28;20026;-93
2021/07/27 00:05:43;;;;;;;14.73;10.02;;;19.70;85.50;;;;;;2065636;28;20436;-94
2021/07/27 00:06:44;;;;;;;15.93;10.70;;;19.70;85.50;;;;;;2072186;28;20048;-93
2021/07/27 00:07:44;;;;;;;18.75;10.90;;;19.70;85.50;;;;;;2074411;28;20520;-93
2021/07/27 00:08:45;;;;;;;16.38;10.68;;;19.70;85.60;;;;;;2066550;28;20037;-93
2021/07/27 00:09:46;;;;;;;17.75;11.32;;;19.70;85.60;;;;;;2066045;28;20030;-92
2021/07/27 00:10:46;;;;;;;15.55;10.82;;;19.60;85.60;;;;;;2065521;28;20374;-94
2021/07/27 00:11:47;;;;;;;17.63;11.77;;;19.60;86.30;;;;;;2066177;28;20227;-93
2021/07/27 00:12:48;;;;;;;18.13;12.07;;;19.60;85.80;;;;;;2058772;28;20029;-93
2021/07/27 00:13:49;;;;;;;16.13;10.70;;;19.60;85.90;;;;;;2066390;28;20022;-93
2021/07/27 00:14:49;;;;;;;14.65;10.45;;;19.60;86.00;;;;;;2065595;28;20053;-93
2021/07/27 00:15:50;;;;;;;16.50;10.48;;;19.50;86.00;;;;;;2066301;28;20033;-92
2021/07/27 00:16:51;;;;;;;15.63;10.18;;;19.50;86.10;;;;;;2058569;28;20027;-94
2021/07/27 00:17:53;;;;;;;16.45;10.40;;;19.50;86.10;;;;;;2070160;28;20468;-93
2021/07/27 00:18:54;;;;;;;15.25;10.25;;;19.50;86.10;;;;;;2058544;28;20030;-93
2021/07/27 00:19:56;;;;;;;16.23;10.30;;;19.50;86.20;;;;;;2073356;28;20700;-93
2021/07/27 00:20:59;;;;;;;16.25;10.27;;;19.50;86.20;;;;;;2074565;28;20159;-93
2021/07/27 00:22:00;;;;;;;15.23;10.40;;;19.50;86.30;;;;;;2074585;28;20381;-94
2021/07/27 00:23:01;;;;;;;17.38;11.27;;;19.50;86.30;;;;;;2083177;28;20060;-93
2021/07/27 00:24:02;;;;;;;15.82;10.70;;;19.50;86.40;;;;;;2074514;28;20030;-94
2021/07/27 00:25:03;;;;;;;15.60;10.07;;;19.50;86.40;;;;;;2066111;28;20493;-93
2021/07/27 00:26:12;;;;;;;16.90;11.15;;;19.50;86.50;;;;;;2068748;28;20053;-94
2021/07/27 00:27:13;;;;;;;15.75;10.50;;;19.50;86.60;;;;;;2068347;28;20680;-92
2021/07/27 00:28:14;;;;;;;17.92;11.38;;;19.50;86.60;;;;;;2075225;28;20033;-93
2021/07/27 00:29:14;;;;;;;16.60;11.52;;;19.50;86.60;;;;;;2074863;28;20479;-93
2021/07/27 00:30:15;;;;;;;16.17;11.05;;;19.50;86.70;;;;;;2068091;28;20101;-93
2021/07/27 00:31:17;;;;;;;16.77;11.10;;;19.40;86.70;;;;;;2071552;28;20106;-90
2021/07/27 00:32:18;;;;;;;16.73;11.13;;;19.40;86.80;;;;;;2084552;28;20097;-93
2021/07/27 00:33:19;;;;;;;17.63;11.82;;;19.40;86.80;;;;;;2092525;28;20017;-93
2021/07/27 00:34:19;;;;;;;17.95;11.38;;;19.40;86.90;;;;;;2083085;28;20028;-94
2021/07/27 00:35:20;;;;;;;18.80;11.90;;;19.40;87.00;;;;;;2081589;28;20416;-94
2021/07/27 00:36:21;;;;;;;17.05;11.68;;;19.40;87.00;;;;;;2072945;28;20022;-94
2021/07/27 00:37:28;;;;;;;17.70;11.73;;;19.40;87.10;;;;;;2072119;28;20109;-93
2021/07/27 00:38:28;;;;;;;18.60;11.85;;;19.40;87.10;;;;;;2075367;28;20026;-94
2021/07/27 00:39:29;;;;;;;17.23;11.48;;;19.40;87.20;;;;;;2065647;28;20065;-94
2021/07/27 00:40:30;;;;;;;19.48;12.23;;;19.30;87.10;;;;;;2073990;28;20105;-93
2021/07/27 00:41:30;;;;;;;18.42;12.20;;;19.30;87.20;;;;;;2068834;28;20120;-93
2021/07/27 00:42:31;;;;;;;20.20;12.05;;;19.40;87.30;;;;;;2073348;28;20479;-94
2021/07/27 00:43:32;;;;;;;20.13;12.85;;;19.30;87.30;;;;;;2068856;28;20026;-93
2021/07/27 00:44:33;;;;;;;19.95;13.02;;;19.30;87.30;;;;;;2074566;28;20026;-93
2021/07/27 00:45:34;;;;;;;22.05;13.57;;;19.30;87.30;;;;;;2076291;28;20022;-93
2021/07/27 00:46:34;;;;;;;20.90;13.40;;;19.30;88.00;;;;;;2081445;28;20073;-93
2021/07/27 00:47:35;;;;;;;20.65;13.07;;;19.30;87.40;;;;;;2076044;28;20022;-94
2021/07/27 00:48:55;;;;;;;18.25;11.60;;;19.30;87.40;;;;;;2071910;28;20036;-94
2021/07/27 00:49:57;;;;;;;19.83;13.30;;;19.30;87.40;;;;;;2072372;28;20542;-94
2021/07/27 00:50:58;;;;;;;20.65;13.57;;;19.30;87.40;;;;;;2086833;28;20029;-94
2021/07/27 00:51:59;;;;;;;21.50;13.50;;;19.30;87.50;;;;;;2087035;28;20060;-93
2021/07/27 00:53:01;;;;;;;22.50;13.77;;;19.30;87.50;;;;;;2074326;28;20120;-94
2021/07/27 00:54:02;;;;;;;20.17;13.57;;;19.30;87.60;;;;;;2073724;28;20026;-93
2021/07/27 00:55:07;;;;;;;20.25;13.60;;;19.30;87.60;;;;;;2072282;28;20104;-94
2021/07/27 00:56:08;;;;;;;22.65;13.88;;;19.30;87.60;;;;;;2082752;28;20017;-92
2021/07/27 00:57:09;;;;;;;19.48;12.70;;;19.30;87.60;;;;;;2090798;28;20028;-94
2021/07/27 00:58:10;;;;;;;19.90;12.35;;;19.30;87.60;;;;;;2080154;28;20491;-93
2021/07/27 00:59:11;;;;;;;20.73;13.82;;;19.30;87.60;;;;;;2084293;28;20029;-94
2021/07/27 01:00:13;;;;;;;20.23;13.48;;;19.30;87.60;;;;;;2082254;28;20067;-93
2021/07/27 01:01:13;;;;;;;18.58;12.10;;;19.30;87.60;;;;;;2076748;28;20495;-94
2021/07/27 01:02:20;;;;;;;19.83;12.48;;;19.30;87.60;;;;;;2082738;28;20017;-94
2021/07/27 01:03:21;;;;;;;17.60;12.80;;;19.30;87.60;;;;;;2075306;28;20184;-94
2021/07/27 01:04:22;;;;;;;20.52;13.20;;;19.30;87.60;;;;;;2068525;28;20030;-93
2021/07/27 01:05:25;;;;;;;20.25;14.02;;;19.30;87.60;;;;;;2065268;28;20121;-94
2021/07/27 01:06:26;;;;;;;20.85;13.63;;;19.30;87.60;;;;;;2071557;28;20021;-94
2021/07/27 01:07:27;;;;;;;21.35;13.45;;;19.20;87.50;;;;;;2074106;28;20048;-93
2021/07/27 01:08:28;;;;;;;19.13;13.02;;;19.30;87.60;;;;;;2082134;28;20021;-94
2021/07/27 01:09:28;;;;;;;21.00;13.73;;;19.20;87.60;;;;;;2072766;28;20038;-94
2021/07/27 01:10:29;;;;;;;20.05;13.43;;;19.20;87.60;;;;;;2079645;28;20018;-95
2021/07/27 01:11:30;;;;;;;20.40;13.43;;;19.20;87.60;;;;;;2073758;28;20488;-95
2021/07/27 01:12:31;;;;;;;19.48;13.77;;;19.30;87.70;;;;;;2082229;28;20072;-94
2021/07/27 01:13:32;;;;;;;20.83;13.70;;;19.30;87.70;;;;;;2065987;28;20027;-93
2021/07/27 01:14:32;;;;;;;18.52;12.88;;;19.20;87.60;;;;;;2073977;28;20024;-94
2021/07/27 01:15:33;;;;;;;19.50;13.40;;;19.30;87.70;;;;;;2081793;28;20108;-95
2021/07/27 01:16:35;;;;;;;22.20;13.90;;;19.30;87.60;;;;;;2081904;28;20032;-93
2021/07/27 01:17:36;;;;;;;21.63;13.93;;;19.30;87.60;;;;;;2072999;28;20030;-95
2021/07/27 01:18:46;;;;;;;21.63;14.68;;;19.30;87.60;;;;;;2068741;28;20499;-93
2021/07/27 01:37:56;;;;;;;21.40;14.60;;;19.20;87.40;;;;;;2094598;28;20039;-94
2021/07/27 01:40:08;;;;;;;22.17;14.48;;;19.10;87.40;;;;;;2074073;28;20074;-93
2021/07/27 01:42:13;;;;;;;21.45;14.55;;;19.10;87.50;;;;;;2090131;28;20051;-93
2021/07/27 01:43:18;;;;;;;20.33;14.23;;;19.10;87.60;;;;;;2082315;28;20032;-93
2021/07/27 01:44:19;;;;;;;21.13;14.18;;;19.10;87.60;;;;;;2082258;28;20097;-95
2021/07/27 01:45:20;;;;;;;22.48;14.32;;;19.10;87.60;;;;;;2081268;28;20041;-93
2021/07/27 01:46:23;;;;;;;21.92;14.80;;;19.10;87.60;;;;;;2078373;28;20407;-94
2021/07/27 01:47:24;;;;;;;24.13;14.77;;;19.10;87.60;;;;;;2073806;28;20108;-95
2021/07/27 01:48:29;;;;;;;22.75;15.07;;;19.10;87.50;;;;;;2065166;28;20030;-94
2021/07/27 01:49:30;;;;;;;22.98;14.90;;;19.10;87.50;;;;;;2066530;28;20608;-94
2021/07/27 01:50:30;;;;;;;23.23;15.15;;;19.10;87.50;;;;;;2072948;28;20022;-94
2021/07/27 01:51:42;;;;;;;20.65;14.07;;;19.20;87.50;;;;;;2072813;28;20460;-92
2021/07/27 01:52:47;;;;;;;21.05;13.88;;;19.10;87.50;;;;;;2076749;28;20014;-94
2021/07/27 01:53:49;;;;;;;21.00;13.55;;;19.10;87.50;;;;;;2073295;28;20025;-94
2021/07/27 01:54:55;;;;;;;21.65;14.25;;;19.10;87.50;;;;;;2058111;28;20030;-92
2021/07/27 01:55:57;;;;;;;20.92;14.00;;;19.10;87.50;;;;;;2067378;28;20054;-94
2021/07/27 01:56:57;;;;;;;19.98;13.68;;;19.10;87.50;;;;;;2073904;28;20042;-93
2021/07/27 01:57:58;;;;;;;20.88;14.23;;;19.10;87.50;;;;;;2065627;28;20054;-93
2021/07/27 01:59:00;;;;;;;19.73;13.98;;;19.10;87.50;;;;;;2068647;28;20031;-93
2021/07/27 02:00:00;;;;;;;23.73;15.68;;;19.10;87.60;;;;;;2065641;28;20023;-94
2021/07/27 02:01:02;;;;;;;22.25;15.30;;;19.10;87.50;;;;;;2079665;28;20100;-93
2021/07/27 02:02:03;;;;;;;26.52;15.52;;;19.10;87.50;;;;;;2073628;28;20393;-94
2021/07/27 02:03:03;;;;;;;23.92;15.60;;;19.10;87.50;;;;;;2073561;28;20046;-94
2021/07/27 02:04:04;;;;;;;22.05;14.95;;;19.10;87.50;;;;;;2079752;28;20045;-95
2021/07/27 02:05:09;;;;;;;22.10;15.13;;;19.10;87.50;;;;;;2071050;28;20050;-94
2021/07/27 02:06:09;;;;;;;23.55;15.25;;;19.10;87.60;;;;;;2067577;28;20388;-92
2021/07/27 02:07:10;;;;;;;22.00;14.88;;;19.10;87.60;;;;;;2072909;28;20109;-93
2021/07/27 02:08:12;;;;;;;20.98;14.55;;;19.10;87.60;;;;;;2073405;28;20069;-93
2021/07/27 02:09:14;;;;;;;20.45;14.38;;;19.10;88.20;;;;;;2072850;28;20029;-94
2021/07/27 02:10:16;;;;;;;22.55;15.52;;;19.00;87.60;;;;;;2080571;28;20452;-93
2021/07/27 02:11:20;;;;;;;21.33;14.18;;;19.00;87.60;;;;;;2081543;28;20022;-93
2021/07/27 02:12:24;;;;;;;20.15;14.05;;;19.00;87.50;;;;;;2073287;28;20463;-94
2021/07/27 02:13:44;;;;;;;20.30;14.23;;;19.00;87.50;;;;;;2066436;28;20505;-94
2021/07/27 02:16:04;;;;;;;21.80;14.05;;;19.00;87.50;;;;;;2079159;28;20517;-93
2021/07/27 02:17:05;;;;;;;20.13;14.02;;;19.00;87.50;;;;;;2081713;28;20029;-93
2021/07/27 02:18:06;;;;;;;22.50;15.23;;;19.00;87.50;;;;;;2081555;28;20089;-94
2021/07/27 02:19:07;;;;;;;22.35;15.13;;;19.00;87.50;;;;;;2069353;28;20500;-94
2021/07/27 02:20:08;;;;;;;22.48;15.27;;;19.00;87.50;;;;;;2061942;28;20018;-94
2021/07/27 02:21:09;;;;;;;21.77;15.32;;;19.00;87.50;;;;;;2073313;28;20048;-94
2021/07/27 02:22:09;;;;;;;21.15;14.73;;;19.00;87.60;;;;;;2073524;28;20033;-95
2021/07/27 02:23:10;;;;;;;21.20;14.65;;;18.90;87.50;;;;;;2073737;28;20026;-94
2021/07/27 02:24:11;;;;;;;22.55;14.93;;;19.00;88.20;;;;;;2072908;28;20022;-94
2021/07/27 02:25:12;;;;;;;20.20;14.63;;;19.00;87.60;;;;;;2072911;28;20034;-93
2021/07/27 02:26:13;;;;;;;24.40;16.02;;;19.00;87.70;;;;;;2057075;28;20421;-94
2021/07/27 02:27:14;;;;;;;23.00;16.33;;;19.00;87.60;;;;;;2049434;28;20066;-93
2021/07/27 02:28:15;;;;;;;22.02;15.52;;;18.90;87.60;;;;;;2072406;28;20052;-96
2021/07/27 02:29:16;;;;;;;20.95;14.50;;;18.90;87.60;;;;;;2072905;28;20040;-94
2021/07/27 02:30:17;;;;;;;23.77;15.68;;;18.90;87.60;;;;;;2073114;28;20081;-93
2021/07/27 02:31:25;;;;;;;22.98;15.60;;;18.90;87.60;;;;;;2064502;28;20497;-94
2021/07/27 02:32:26;;;;;;;22.75;15.57;;;18.90;87.70;;;;;;2066933;28;20031;-94
2021/07/27 02:33:29;;;;;;;24.05;16.17;;;18.90;87.70;;;;;;2074047;28;20029;-93
2021/07/27 02:34:32;;;;;;;24.85;16.58;;;18.90;87.60;;;;;;2080933;28;20017;-94
2021/07/27 02:35:33;;;;;;;23.63;16.10;;;18.90;87.70;;;;;;2073211;28;20041;-93
2021/07/27 02:36:34;;;;;;;22.42;15.65;;;18.90;87.70;;;;;;2064982;28;20443;-94
2021/07/27 02:37:35;;;;;;;22.67;15.55;;;18.90;87.70;;;;;;2081476;28;20044;-94
2021/07/27 02:38:35;;;;;;;23.92;15.52;;;18.90;87.70;;;;;;2078298;28;20086;-93
2021/07/27 02:39:37;;;;;;;23.17;15.73;;;18.90;87.70;;;;;;2081480;28;20030;-94
2021/07/27 02:40:38;;;;;;;21.80;15.15;;;18.90;87.70;;;;;;2081364;28;20037;-94
2021/07/27 02:41:39;;;;;;;23.27;15.98;;;18.90;87.70;;;;;;2073130;28;20038;-92
2021/07/27 02:42:39;;;;;;;24.27;17.05;;;18.90;87.70;;;;;;2065998;28;20025;-94
2021/07/27 02:43:40;;;;;;;25.55;17.08;;;18.90;87.70;;;;;;2077313;28;20030;-94
2021/07/27 02:44:41;;;;;;;24.63;16.98;;;18.90;87.70;;;;;;2073514;28;20408;-95
2021/07/27 02:45:41;;;;;;;24.05;16.67;;;18.90;87.70;;;;;;2064743;28;20496;-94
2021/07/27 02:46:42;;;;;;;23.42;16.50;;;18.90;87.70;;;;;;2072990;28;20038;-94
2021/07/27 02:47:43;;;;;;;23.23;16.15;;;19.00;87.80;;;;;;2073291;28;20022;-93
2021/07/27 02:49:00;;;;;;;27.02;16.67;;;18.90;87.70;;;;;;2080586;28;20383;-93
2021/07/27 02:50:01;;;;;;;21.67;15.68;;;18.90;87.70;;;;;;2072177;28;20018;-94
2021/07/27 02:51:02;;;;;;;22.63;16.50;;;18.90;87.80;;;;;;2079622;28;20061;-94
2021/07/27 02:52:03;;;;;;;24.38;17.23;;;18.90;87.80;;;;;;2085059;28;20036;-94
2021/07/27 02:53:03;;;;;;;26.15;17.02;;;18.90;87.80;;;;;;2084821;28;20051;-94
2021/07/27 02:54:07;;;;;;;25.67;18.13;;;18.90;87.90;;;;;;2085378;28;20017;-94
2021/07/27 02:55:09;;;;;;;25.50;16.77;;;18.80;87.80;;;;;;2076924;28;20022;-95
2021/07/27 02:56:17;;;;;;;25.83;17.42;;;18.80;87.90;;;;;;2068477;28;20050;-95
2021/07/27 02:57:17;;;;;;;24.88;17.98;;;18.80;87.90;;;;;;2076766;28;20124;-94
2021/07/27 02:58:27;;;;;;;25.50;16.83;;;18.80;88.00;;;;;;2079658;28;20021;-94
2021/07/27 02:59:28;;;;;;;23.75;16.48;;;18.80;88.10;;;;;;2076461;28;20506;-95
2021/07/27 03:00:29;;;;;;;24.80;17.10;;;18.70;88.10;;;;;;2081791;28;20025;-95
2021/07/27 03:01:29;;;;;;;25.85;17.42;;;18.80;88.20;;;;;;2079802;28;20067;-94
2021/07/27 03:02:40;;;;;;;25.63;17.60;;;18.70;88.10;;;;;;2082485;28;20112;-95
2021/07/27 03:03:41;;;;;;;24.40;17.73;;;18.70;88.20;;;;;;2091731;28;20060;-93
2021/07/27 03:04:42;;;;;;;27.13;17.90;;;18.70;88.20;;;;;;2083614;28;20117;-94
2021/07/27 03:05:42;;;;;;;26.15;18.70;;;18.70;88.20;;;;;;2075156;28;20475;-94
2021/07/27 03:06:46;;;;;;;26.52;18.50;;;18.70;88.30;;;;;;2068593;28;20083;-93
2021/07/27 03:09:02;;;;;;;27.05;18.95;;;18.70;88.30;;;;;;2092150;28;20111;-94
2021/07/27 03:10:19;;;;;;;25.23;18.15;;;18.60;88.30;;;;;;2092560;28;20025;-94
2021/07/27 03:11:20;;;;;;;25.17;17.98;;;18.60;88.30;;;;;;2085061;28;20037;-94
2021/07/27 03:12:20;;;;;;;24.65;17.80;;;18.60;88.30;;;;;;2091927;28;20029;-94
2021/07/27 03:13:21;;;;;;;26.67;19.20;;;18.60;88.30;;;;;;2084099;28;20491;-95
2021/07/27 03:14:25;;;;;;;26.77;18.15;;;18.60;88.30;;;;;;2084155;28;20056;-94
2021/07/27 03:15:26;;;;;;;25.40;18.17;;;18.60;88.20;;;;;;2092612;28;20040;-94
2021/07/27 03:16:27;;;;;;;26.08;18.80;;;18.70;88.30;;;;;;2084276;28;20022;-94
2021/07/27 03:17:28;;;;;;;25.90;18.30;;;18.70;88.30;;;;;;2094141;28;20144;-94
2021/07/27 03:18:28;;;;;;;25.55;18.33;;;18.70;88.20;;;;;;2077722;28;20093;-93
2021/07/27 03:19:29;;;;;;;27.77;18.83;;;18.70;88.20;;;;;;2079563;28;20059;-94
2021/07/27 03:20:32;;;;;;;26.30;18.88;;;18.70;88.20;;;;;;2094340;28;20072;-92
2021/07/27 03:21:32;;;;;;;25.98;18.45;;;18.70;88.10;;;;;;2094533;28;20085;-95
2021/07/27 03:22:33;;;;;;;24.42;18.13;;;18.70;88.10;;;;;;2079403;28;20030;-96
2021/07/27 03:23:34;;;;;;;24.15;17.70;;;18.70;88.10;;;;;;2084077;28;20078;-95
2021/07/27 03:24:35;;;;;;;24.63;18.02;;;18.70;88.10;;;;;;2075557;28;20138;-93
2021/07/27 03:25:36;;;;;;;24.58;17.83;;;18.70;88.10;;;;;;2067705;28;20033;-95
2021/07/27 03:26:37;;;;;;;24.65;17.33;;;18.80;88.10;;;;;;2083463;28;20538;-94
2021/07/27 03:27:38;;;;;;;23.95;18.00;;;18.80;88.10;;;;;;2084280;28;20017;-94
2021/07/27 03:28:40;;;;;;;26.58;18.80;;;18.80;88.00;;;;;;2084202;28;20083;-95
2021/07/27 03:29:41;;;;;;;26.98;18.25;;;18.80;88.10;;;;;;2083972;28;20400;-93
2021/07/27 03:30:42;;;;;;;26.58;19.33;;;18.80;88.00;;;;;;2084884;28;20390;-94
2021/07/27 03:31:43;;;;;;;25.73;18.55;;;18.80;88.00;;;;;;2090007;28;20029;-94
2021/07/27 03:32:45;;;;;;;25.48;18.52;;;18.80;87.90;;;;;;2092518;28;20068;-93
2021/07/27 03:33:46;;;;;;;26.45;18.48;;;18.80;88.00;;;;;;2084411;28;20057;-95
2021/07/27 03:34:47;;;;;;;25.17;18.20;;;18.80;88.00;;;;;;2085813;28;20040;-93
2021/07/27 03:35:47;;;;;;;25.92;18.02;;;18.80;87.90;;;;;;2083621;28;20018;-94
2021/07/27 03:36:48;;;;;;;29.20;18.13;;;18.80;87.90;;;;;;2083379;28;20784;-94
2021/07/27 03:37:49;;;;;;;25.75;18.08;;;18.80;87.90;;;;;;2083328;28;20025;-95
2021/07/27 03:38:51;;;;;;;25.17;18.02;;;18.90;88.00;;;;;;2084479;28;20025;-94
2021/07/27 03:39:51;;;;;;;23.20;17.58;;;18.80;87.90;;;;;;2084027;28;20025;-93
2021/07/27 03:41:01;;;;;;;25.52;18.13;;;18.80;87.80;;;;;;2091649;28;20108;-94
2021/07/27 03:42:03;;;;;;;24.58;17.70;;;18.80;87.90;;;;;;2082412;28;20025;-95
2021/07/27 03:43:04;;;;;;;26.20;18.20;;;18.80;87.90;;;;;;2082878;28;20018;-95
2021/07/27 03:44:05;;;;;;;25.73;18.40;;;18.80;87.80;;;;;;2083978;28;20022;-95
2021/07/27 03:45:06;;;;;;;27.00;18.60;;;18.80;87.80;;;;;;2067026;28;20077;-93
2021/07/27 03:46:07;;;;;;;27.73;18.08;;;18.80;87.80;;;;;;2059425;28;20030;-94
2021/07/27 03:47:08;;;;;;;25.67;17.85;;;18.80;87.90;;;;;;2075974;28;20034;-93
2021/07/27 03:48:09;;;;;;;27.67;19.05;;;18.80;87.80;;;;;;2083830;28;20032;-92
2021/07/27 03:49:10;;;;;;;25.33;17.65;;;18.80;87.80;;;;;;2075465;28;20038;-94
2021/07/27 03:50:11;;;;;;;24.92;17.42;;;18.80;87.80;;;;;;2075715;28;20477;-94
2021/07/27 03:51:13;;;;;;;27.02;17.55;;;18.80;87.80;;;;;;2072263;28;20080;-93
2021/07/27 03:52:13;;;;;;;25.33;18.17;;;18.80;87.90;;;;;;2083954;28;20049;-93
2021/07/27 03:53:33;;;;;;;23.90;17.77;;;18.80;87.90;;;;;;2067691;28;20397;-93
2021/07/27 03:54:34;;;;;;;22.35;16.13;;;18.80;87.90;;;;;;2075361;28;20032;-94
2021/07/27 03:55:35;;;;;;;26.67;18.20;;;18.80;87.90;;;;;;2080201;28;20033;-94
2021/07/27 03:56:39;;;;;;;23.20;17.50;;;18.80;87.90;;;;;;2092356;28;20060;-92
2021/07/27 03:57:40;;;;;;;22.75;17.10;;;18.80;87.80;;;;;;2102003;28;20033;-93
2021/07/27 03:58:43;;;;;;;24.13;17.52;;;18.80;87.90;;;;;;2093930;28;20025;-94
2021/07/27 03:59:45;;;;;;;24.83;17.35;;;18.80;87.90;;;;;;2094479;28;20104;-94
2021/07/27 04:00:46;;;;;;;24.02;16.85;;;18.80;87.90;;;;;;2088163;28;20032;-93
2021/07/27 04:01:48;;;;;;;24.10;17.40;;;18.80;87.80;;;;;;2087837;28;20052;-94
2021/07/27 04:02:48;;;;;;;24.75;17.80;;;18.80;87.90;;;;;;2079756;28;20033;-95
2021/07/27 04:03:50;;;;;;;25.33;18.33;;;18.80;87.90;;;;;;2078726;28;20439;-94
2021/07/27 04:04:51;;;;;;;25.45;18.25;;;18.80;87.90;;;;;;2073469;28;20044;-94
2021/07/27 04:05:52;;;;;;;25.67;17.63;;;18.80;87.90;;;;;;2082683;28;20056;-95
2021/07/27 04:06:53;;;;;;;24.17;17.70;;;18.70;87.80;;;;;;2074552;28;20077;-94
2021/07/27 04:07:54;;;;;;;23.98;17.67;;;18.70;87.80;;;;;;2071946;28;20028;-96
2021/07/27 04:08:57;;;;;;;22.05;17.17;;;18.70;87.80;;;;;;2080208;28;20450;-94
2021/07/27 04:10:03;;;;;;;24.42;18.02;;;18.80;88.00;;;;;;2083116;28;20091;-95
2021/07/27 04:11:04;;;;;;;23.55;17.52;;;18.70;87.90;;;;;;2083403;28;20071;-94
2021/07/27 04:12:05;;;;;;;24.63;17.50;;;18.70;88.40;;;;;;2073806;28;20041;-93
2021/07/27 04:13:06;;;;;;;24.27;18.75;;;18.70;87.80;;;;;;2074043;28;20030;-95
2021/07/27 04:14:07;;;;;;;22.13;16.83;;;18.70;87.80;;;;;;2082854;28;20022;-94
2021/07/27 04:15:08;;;;;;;22.98;17.83;;;18.70;87.80;;;;;;2074338;28;20108;-94
2021/07/27 04:16:09;;;;;;;23.95;17.60;;;18.70;87.90;;;;;;2066158;28;20037;-94
2021/07/27 04:17:10;;;;;;;23.50;17.80;;;18.70;87.90;;;;;;2074914;28;20101;-94
2021/07/27 04:18:11;;;;;;;21.65;16.02;;;18.70;88.50;;;;;;2084911;28;20040;-94
2021/07/27 04:19:11;;;;;;;24.25;17.77;;;18.70;87.90;;;;;;2089407;28;20022;-95
2021/07/27 04:20:12;;;;;;;20.77;16.10;;;18.70;87.90;;;;;;2100919;28;20065;-90
2021/07/27 04:21:13;;;;;;;21.70;16.13;;;18.70;87.80;;;;;;2088507;28;20029;-94
2021/07/27 04:22:14;;;;;;;26.02;17.70;;;18.70;87.90;;;;;;2091043;28;20089;-94
2021/07/27 04:23:16;;;;;;;24.23;17.23;;;18.70;87.90;;;;;;2082177;28;20025;-94
2021/07/27 04:24:19;;;;;;;22.77;16.67;;;18.60;87.90;;;;;;2082419;28;20423;-94
2021/07/27 04:25:20;;;;;;;21.90;16.15;;;18.70;88.00;;;;;;2082504;28;20071;-94
2021/07/27 04:26:21;;;;;;;20.65;15.73;;;18.70;88.00;;;;;;2079940;28;20052;-93
2021/07/27 04:27:24;;;;;;;20.17;14.77;;;18.70;88.00;;;;;;2066429;28;20046;-94
2021/07/27 04:28:25;;;;;;;21.52;15.00;;;18.70;88.00;;;;;;2066481;28;20069;-94
2021/07/27 04:29:26;;;;;;;21.13;15.57;;;18.60;87.90;;;;;;2082712;28;20107;-94
2021/07/27 04:30:27;;;;;;;19.17;14.63;;;18.70;88.00;;;;;;2066481;28;20034;-94
2021/07/27 04:31:28;;;;;;;19.13;13.90;;;18.70;88.00;;;;;;2061914;28;20484;-94
2021/07/27 04:32:29;;;;;;;17.65;13.30;;;18.70;88.00;;;;;;2075402;28;20049;-96
2021/07/27 04:33:30;;;;;;;18.65;14.27;;;18.70;87.90;;;;;;2074003;28;20169;-93
2021/07/27 04:34:30;;;;;;;19.02;14.35;;;18.70;87.90;;;;;;2084250;28;20057;-93
2021/07/27 04:35:31;;;;;;;18.85;13.80;;;18.70;87.90;;;;;;2086416;28;20530;-94
2021/07/27 04:36:32;;;;;;;18.75;13.52;;;18.70;87.80;;;;;;2068988;28;20030;-94
2021/07/27 04:37:33;;;;;;;18.77;14.02;;;18.70;88.50;;;;;;2074697;28;20120;-94
2021/07/27 04:38:34;;;;;;;17.98;13.38;;;18.70;87.80;;;;;;2066169;28;20038;-96
2021/07/27 04:39:35;;;;;;;18.42;13.65;;;18.70;87.80;;;;;;2086157;28;20018;-93
2021/07/27 04:40:35;;;;;;;19.58;14.10;;;18.70;87.80;;;;;;2082796;28;20060;-95
2021/07/27 04:41:37;;;;;;;17.67;13.60;;;18.70;87.80;;;;;;2073397;28;20045;-94
2021/07/27 04:42:37;;;;;;;19.77;14.40;;;18.70;87.80;;;;;;2073873;28;20030;-94
2021/07/27 04:43:39;;;;;;;19.08;14.65;;;18.70;87.70;;;;;;2073283;28;20095;-94
2021/07/27 04:44:41;;;;;;;20.02;14.43;;;18.70;87.80;;;;;;2073888;28;20455;-95
2021/07/27 04:45:42;;;;;;;19.10;14.00;;;18.70;87.70;;;;;;2082095;28;20072;-93
2021/07/27 04:46:43;;;;;;;19.25;13.60;;;18.70;87.70;;;;;;2082937;28;20033;-94
2021/07/27 04:47:43;;;;;;;17.95;13.73;;;18.70;87.80;;;;;;2091298;28;20119;-93
2021/07/27 04:48:44;;;;;;;17.88;13.43;;;18.70;87.80;;;;;;2092232;28;20017;-95
2021/07/27 04:49:45;;;;;;;18.20;13.57;;;18.70;87.80;;;;;;2077680;28;20026;-94
2021/07/27 04:50:46;;;;;;;18.48;13.93;;;18.70;87.90;;;;;;2066559;28;20027;-94
2021/07/27 04:51:47;;;;;;;17.13;12.93;;;18.60;87.80;;;;;;2076347;28;20038;-94
2021/07/27 04:52:52;;;;;;;18.20;12.80;;;18.70;87.80;;;;;;2074035;28;20111;-94
2021/07/27 04:53:58;;;;;;;18.35;12.75;;;18.60;87.80;;;;;;2082454;28;20419;-94
2021/07/27 04:54:59;;;;;;;16.27;13.00;;;18.70;87.80;;;;;;2074917;28;20116;-95
2021/07/27 04:56:00;;;;;;;17.42;12.88;;;18.70;87.80;;;;;;2082977;28;20028;-95
2021/07/27 04:57:01;;;;;;;16.33;12.65;;;18.70;87.80;;;;;;2082454;28;20026;-94
2021/07/27 04:58:05;;;;;;;18.40;13.27;;;18.70;87.80;;;;;;2081890;28;20018;-95
2021/07/27 04:59:05;;;;;;;18.90;13.43;;;18.70;87.80;;;;;;2081679;28;20060;-95
2021/07/27 05:00:14;;;;;;;16.55;12.50;;;18.70;87.70;;;;;;2082055;28;20116;-94
2021/07/27 05:01:14;;;;;;;16.42;12.63;;;18.70;87.70;;;;;;2082779;28;20033;-94
2021/07/27 05:02:15;;;;;;;15.18;12.10;;;18.70;87.70;;;;;;2090211;28;20024;-94
2021/07/27 05:03:16;;;;;;;17.42;12.45;;;18.70;87.60;;;;;;2087311;28;20159;-94
2021/07/27 05:04:17;;;;;;;16.55;12.15;;;18.70;87.60;;;;;;2066201;28;20104;-94
2021/07/27 05:05:18;;;;;;;16.75;12.55;;;18.70;87.50;;;;;;2066237;28;20524;-95
2021/07/27 05:06:18;;;;;;;15.98;12.05;;;18.70;87.50;;;;;;2074066;28;20576;-95
2021/07/27 05:07:19;;;;;;;16.73;12.20;;;18.70;87.40;;;;;;2073535;28;20415;-94
2021/07/27 05:08:19;;;;;;;15.35;12.55;;;18.80;87.40;;;;;;2072997;28;20033;-94
2021/07/27 05:09:20;;;;;;;16.10;12.63;;;18.80;87.40;;;;;;2070612;28;20480;-94
2021/07/27 05:10:21;;;;;;;16.80;12.85;;;18.80;87.30;;;;;;2074210;28;20117;-94
2021/07/27 05:11:24;;;;;;;17.23;12.45;;;18.80;87.20;;;;;;2072860;28;20030;-94
2021/07/27 05:12:24;;;;;;;15.70;11.88;;;18.80;87.20;;;;;;2082631;28;20030;-94
2021/07/27 05:13:25;;;;;;;14.95;11.65;;;18.80;87.20;;;;;;2088660;28;20033;-95
2021/07/27 05:14:26;;;;;;;16.60;13.00;;;18.90;87.20;;;;;;2074116;28;20030;-95
2021/07/27 05:15:26;;;;;;;16.73;12.45;;;18.90;87.10;;;;;;2082033;28;20024;-95
2021/07/27 05:16:27;;;;;;;17.52;11.85;;;18.90;87.10;;;;;;2081368;28;20553;-94
2021/07/27 05:17:28;;;;;;;15.23;11.52;;;18.90;87.10;;;;;;2081790;28;20075;-94
2021/07/27 05:18:29;;;;;;;15.98;12.00;;;18.90;87.00;;;;;;2073645;28;20038;-94
2021/07/27 05:19:29;;;;;;;14.48;11.50;;;18.90;86.80;;;;;;2065779;28;20509;-94
2021/07/27 05:20:30;;;;;;;15.85;11.77;;;19.00;86.90;;;;;;2074081;28;20092;-95
2021/07/27 05:21:31;;;;;;;15.90;10.80;;;19.00;86.80;;;;;;2073143;28;20074;-94
2021/07/27 05:22:33;;;;;;;13.35;10.50;;;19.00;86.70;;;;;;2082048;28;20041;-94
2021/07/27 05:23:33;;;;;;;15.00;11.85;;;19.10;86.80;;;;;;2082106;28;20036;-94
2021/07/27 05:24:34;;;;;;;14.85;10.95;;;19.10;86.60;;;;;;2081882;28;20031;-93
2021/07/27 05:25:35;;;;;;;15.82;11.60;;;19.10;86.50;;;;;;2081999;28;20112;-95
2021/07/27 05:26:35;;;;;;;14.23;11.25;;;19.10;86.40;;;;;;2081513;28;20379;-94
2021/07/27 05:27:36;;;;;;;15.40;11.77;;;19.10;86.40;;;;;;2081876;28;20458;-95
2021/07/27 05:28:37;;;;;;;14.70;11.23;;;19.10;86.30;;;;;;2081547;28;20022;-94
2021/07/27 05:29:38;;;;;;;14.32;11.45;;;19.10;86.30;;;;;;2089923;28;20057;-93
2021/07/27 05:30:38;;;;;;;14.27;10.82;;;19.10;86.30;;;;;;2081587;28;20021;-94
2021/07/27 05:31:39;;;;;;;14.20;10.45;;;19.10;86.30;;;;;;2082043;28;20076;-94
2021/07/27 05:32:40;;;;;;;14.93;10.75;;;19.10;86.30;;;;;;2093074;28;20017;-94
2021/07/27 05:33:41;;;;;;;14.30;10.82;;;19.10;86.30;;;;;;2082248;28;20029;-94
2021/07/27 05:34:42;;;;;;;14.50;10.95;;;19.10;86.30;;;;;;2089004;28;20029;-95
2021/07/27 05:35:42;;;;;;;14.55;11.27;;;19.10;86.30;;;;;;2079774;28;20022;-93
2021/07/27 05:36:43;;;;;;;13.73;10.75;;;19.10;86.20;;;;;;2081339;28;20039;-93